sensor_id;sensor_type;location;lat;lon;timestamp;P1;durP1;ratioP1;P2;durP2;ratioP2
35961;SDS011;22044;48.298;10.008;2022-11-11T00:00:29;7.80;;;5.53;;
35961;SDS011;22044;48.298;10.008;2022-11-11T00:03:33;10.43;;;5.77;;
35961;SDS011;22044;48.298;10.008;2022-11-11T00:06:38;8.20;;;6.10;;
35961;SDS011;22044;48.298;10.008;2022-11-11T00:09:42;7.33;;;6.10;;
35961;SDS011;22044;48.298;10.008;2022-11-11T00:12:46;10.30;;;6.60;;
35961;SDS011;22044;48.298;10.008;2022-11-11T00:15:52;53.93;;;9.33;;
35961;SDS011;22044;48.298;10.008;2022-11-11T00:18:56;106.40;;;9.70;;
35961;SDS011;22044;48.298;10.008;2022-11-11T00:22:19;71.97;;;7.10;;
35961;SDS011;22044;48.298;10.008;2022-11-11T00:25:42;29.17;;;5.27;;
35961;SDS011;22044;48.298;10.008;2022-11-11T00:28:46;29.30;;;6.40;;
35961;SDS011;22044;48.298;10.008;2022-11-11T00:31:52;22.17;;;6.40;;
35961;SDS011;22044;48.298;10.008;2022-11-11T00:35:14;6.70;;;5.57;;
35961;SDS011;22044;48.298;10.008;2022-11-11T00:38:36;9.30;;;6.23;;
35961;SDS011;22044;48.298;10.008;2022-11-11T00:41:49;7.67;;;6.13;;
35961;SDS011;22044;48.298;10.008;2022-11-11T00:44:54;5.93;;;5.30;;
35961;SDS011;22044;48.298;10.008;2022-11-11T00:47:59;6.27;;;5.67;;
35961;SDS011;22044;48.298;10.008;2022-11-11T00:51:21;7.27;;;5.83;;
35961;SDS011;22044;48.298;10.008;2022-11-11T00:54:26;7.17;;;5.53;;
35961;SDS011;22044;48.298;10.008;2022-11-11T00:57:30;6.67;;;5.60;;
35961;SDS011;22044;48.298;10.008;2022-11-11T01:00:35;8.90;;;6.00;;
35961;SDS011;22044;48.298;10.008;2022-11-11T01:03:41;6.80;;;5.17;;
35961;SDS011;22044;48.298;10.008;2022-11-11T01:06:46;9.20;;;5.60;;
35961;SDS011;22044;48.298;10.008;2022-11-11T01:09:50;19.00;;;6.30;;
35961;SDS011;22044;48.298;10.008;2022-11-11T01:12:54;13.40;;;5.00;;
35961;SDS011;22044;48.298;10.008;2022-11-11T01:16:14;5.30;;;4.80;;
35961;SDS011;22044;48.298;10.008;2022-11-11T01:19:21;6.67;;;4.93;;
35961;SDS011;22044;48.298;10.008;2022-11-11T01:22:26;10.33;;;6.33;;
35961;SDS011;22044;48.298;10.008;2022-11-11T01:25:32;9.93;;;7.60;;
35961;SDS011;22044;48.298;10.008;2022-11-11T01:28:37;11.17;;;7.57;;
35961;SDS011;22044;48.298;10.008;2022-11-11T01:31:41;11.83;;;7.13;;
35961;SDS011;22044;48.298;10.008;2022-11-11T01:34:48;8.37;;;6.40;;
35961;SDS011;22044;48.298;10.008;2022-11-11T01:37:52;12.10;;;6.67;;
35961;SDS011;22044;48.298;10.008;2022-11-11T01:40:57;9.60;;;6.87;;
35961;SDS011;22044;48.298;10.008;2022-11-11T01:44:02;8.93;;;6.67;;
35961;SDS011;22044;48.298;10.008;2022-11-11T01:47:19;17.07;;;6.27;;
35961;SDS011;22044;48.298;10.008;2022-11-11T01:50:46;18.27;;;6.73;;
35961;SDS011;22044;48.298;10.008;2022-11-11T01:53:52;25.20;;;8.43;;
35961;SDS011;22044;48.298;10.008;2022-11-11T01:57:01;27.17;;;9.77;;
35961;SDS011;22044;48.298;10.008;2022-11-11T02:00:10;18.53;;;9.27;;
35961;SDS011;22044;48.298;10.008;2022-11-11T02:03:16;21.83;;;9.80;;
35961;SDS011;22044;48.298;10.008;2022-11-11T02:06:25;19.27;;;9.67;;
35961;SDS011;22044;48.298;10.008;2022-11-11T02:09:30;24.60;;;9.23;;
35961;SDS011;22044;48.298;10.008;2022-11-11T02:12:34;19.55;;;10.15;;
35961;SDS011;22044;48.298;10.008;2022-11-11T02:15:56;16.00;;;8.33;;
35961;SDS011;22044;48.298;10.008;2022-11-11T02:19:01;12.77;;;8.70;;
35961;SDS011;22044;48.298;10.008;2022-11-11T02:22:07;20.50;;;8.43;;
35961;SDS011;22044;48.298;10.008;2022-11-11T02:25:17;22.07;;;8.77;;
35961;SDS011;22044;48.298;10.008;2022-11-11T02:28:24;13.00;;;7.37;;
35961;SDS011;22044;48.298;10.008;2022-11-11T02:31:30;34.03;;;9.40;;
35961;SDS011;22044;48.298;10.008;2022-11-11T02:34:35;26.83;;;8.70;;
35961;SDS011;22044;48.298;10.008;2022-11-11T02:37:40;39.37;;;11.03;;
35961;SDS011;22044;48.298;10.008;2022-11-11T02:40:48;27.20;;;10.02;;
35961;SDS011;22044;48.298;10.008;2022-11-11T02:44:06;32.63;;;9.77;;
35961;SDS011;22044;48.298;10.008;2022-11-11T02:47:11;31.67;;;9.43;;
35961;SDS011;22044;48.298;10.008;2022-11-11T02:50:15;45.93;;;9.40;;
35961;SDS011;22044;48.298;10.008;2022-11-11T02:53:20;31.37;;;8.43;;
35961;SDS011;22044;48.298;10.008;2022-11-11T02:56:26;37.47;;;9.17;;
35961;SDS011;22044;48.298;10.008;2022-11-11T02:59:48;22.30;;;7.60;;
35961;SDS011;22044;48.298;10.008;2022-11-11T03:02:52;11.77;;;7.10;;
35961;SDS011;22044;48.298;10.008;2022-11-11T03:05:57;16.83;;;6.47;;
35961;SDS011;22044;48.298;10.008;2022-11-11T03:09:01;12.23;;;7.23;;
35961;SDS011;22044;48.298;10.008;2022-11-11T03:12:07;8.67;;;6.67;;
35961;SDS011;22044;48.298;10.008;2022-11-11T03:15:11;22.93;;;8.63;;
35961;SDS011;22044;48.298;10.008;2022-11-11T03:18:16;13.10;;;8.00;;
35961;SDS011;22044;48.298;10.008;2022-11-11T03:21:19;40.97;;;8.77;;
35961;SDS011;22044;48.298;10.008;2022-11-11T03:24:23;27.73;;;8.73;;
35961;SDS011;22044;48.298;10.008;2022-11-11T03:27:49;10.83;;;7.80;;
35961;SDS011;22044;48.298;10.008;2022-11-11T03:30:54;22.27;;;9.30;;
35961;SDS011;22044;48.298;10.008;2022-11-11T03:33:58;37.63;;;9.77;;
35961;SDS011;22044;48.298;10.008;2022-11-11T03:37:19;36.73;;;9.47;;
35961;SDS011;22044;48.298;10.008;2022-11-11T03:40:41;22.67;;;9.33;;
35961;SDS011;22044;48.298;10.008;2022-11-11T03:43:48;26.00;;;9.67;;
35961;SDS011;22044;48.298;10.008;2022-11-11T03:46:52;24.00;;;10.30;;
35961;SDS011;22044;48.298;10.008;2022-11-11T03:49:56;20.07;;;11.30;;
35961;SDS011;22044;48.298;10.008;2022-11-11T03:53:01;16.90;;;11.77;;
35961;SDS011;22044;48.298;10.008;2022-11-11T03:56:06;14.63;;;11.87;;
35961;SDS011;22044;48.298;10.008;2022-11-11T03:59:11;20.37;;;11.50;;
35961;SDS011;22044;48.298;10.008;2022-11-11T04:02:16;17.10;;;11.90;;
35961;SDS011;22044;48.298;10.008;2022-11-11T04:05:38;14.27;;;10.53;;
35961;SDS011;22044;48.298;10.008;2022-11-11T04:09:00;16.57;;;9.73;;
35961;SDS011;22044;48.298;10.008;2022-11-11T04:12:22;14.73;;;10.00;;
35961;SDS011;22044;48.298;10.008;2022-11-11T04:15:28;17.07;;;9.40;;
35961;SDS011;22044;48.298;10.008;2022-11-11T04:18:50;12.13;;;9.33;;
35961;SDS011;22044;48.298;10.008;2022-11-11T04:22:12;20.17;;;10.10;;
35961;SDS011;22044;48.298;10.008;2022-11-11T04:25:17;20.30;;;9.60;;
35961;SDS011;22044;48.298;10.008;2022-11-11T04:28:39;23.87;;;9.90;;
35961;SDS011;22044;48.298;10.008;2022-11-11T04:32:03;21.07;;;9.53;;
35961;SDS011;22044;48.298;10.008;2022-11-11T04:35:27;39.97;;;10.43;;
35961;SDS011;22044;48.298;10.008;2022-11-11T04:38:31;10.17;;;9.13;;
35961;SDS011;22044;48.298;10.008;2022-11-11T04:41:53;17.67;;;8.93;;
35961;SDS011;22044;48.298;10.008;2022-11-11T04:44:58;17.27;;;9.30;;
35961;SDS011;22044;48.298;10.008;2022-11-11T04:48:22;13.10;;;7.97;;
35961;SDS011;22044;48.298;10.008;2022-11-11T04:51:26;19.33;;;8.00;;
35961;SDS011;22044;48.298;10.008;2022-11-11T04:54:51;9.30;;;7.67;;
35961;SDS011;22044;48.298;10.008;2022-11-11T04:58:13;10.03;;;8.93;;
35961;SDS011;22044;48.298;10.008;2022-11-11T05:01:18;58.77;;;8.87;;
35961;SDS011;22044;48.298;10.008;2022-11-11T05:04:38;8.80;;;7.90;;
35961;SDS011;22044;48.298;10.008;2022-11-11T05:07:42;11.23;;;8.13;;
35961;SDS011;22044;48.298;10.008;2022-11-11T05:11:04;20.33;;;8.23;;
35961;SDS011;22044;48.298;10.008;2022-11-11T05:14:09;13.80;;;7.70;;
35961;SDS011;22044;48.298;10.008;2022-11-11T05:17:31;16.30;;;8.07;;
35961;SDS011;22044;48.298;10.008;2022-11-11T05:20:55;14.53;;;7.33;;
35961;SDS011;22044;48.298;10.008;2022-11-11T05:24:17;20.67;;;8.57;;
35961;SDS011;22044;48.298;10.008;2022-11-11T05:27:39;13.67;;;8.07;;
35961;SDS011;22044;48.298;10.008;2022-11-11T05:30:44;17.97;;;7.43;;
35961;SDS011;22044;48.298;10.008;2022-11-11T05:33:48;18.57;;;8.17;;
35961;SDS011;22044;48.298;10.008;2022-11-11T05:36:54;14.13;;;7.70;;
35961;SDS011;22044;48.298;10.008;2022-11-11T05:39:58;16.53;;;8.37;;
35961;SDS011;22044;48.298;10.008;2022-11-11T05:43:02;10.37;;;7.57;;
35961;SDS011;22044;48.298;10.008;2022-11-11T05:46:07;13.53;;;8.43;;
35961;SDS011;22044;48.298;10.008;2022-11-11T05:49:11;24.13;;;8.30;;
35961;SDS011;22044;48.298;10.008;2022-11-11T05:52:19;30.43;;;8.00;;
35961;SDS011;22044;48.298;10.008;2022-11-11T05:55:24;19.90;;;7.97;;
35961;SDS011;22044;48.298;10.008;2022-11-11T05:58:28;48.73;;;7.87;;
35961;SDS011;22044;48.298;10.008;2022-11-11T06:01:33;16.73;;;7.73;;
35961;SDS011;22044;48.298;10.008;2022-11-11T06:04:38;42.73;;;8.60;;
35961;SDS011;22044;48.298;10.008;2022-11-11T06:07:43;14.47;;;9.00;;
35961;SDS011;22044;48.298;10.008;2022-11-11T06:10:47;13.97;;;8.07;;
35961;SDS011;22044;48.298;10.008;2022-11-11T06:13:53;27.40;;;8.40;;
35961;SDS011;22044;48.298;10.008;2022-11-11T06:16:57;21.47;;;7.00;;
35961;SDS011;22044;48.298;10.008;2022-11-11T06:20:02;29.33;;;7.67;;
35961;SDS011;22044;48.298;10.008;2022-11-11T06:23:08;14.17;;;7.63;;
35961;SDS011;22044;48.298;10.008;2022-11-11T06:26:12;8.77;;;6.57;;
35961;SDS011;22044;48.298;10.008;2022-11-11T06:29:18;10.47;;;7.07;;
35961;SDS011;22044;48.298;10.008;2022-11-11T06:32:22;13.90;;;7.70;;
35961;SDS011;22044;48.298;10.008;2022-11-11T06:35:27;9.73;;;6.60;;
35961;SDS011;22044;48.298;10.008;2022-11-11T06:38:32;18.23;;;7.33;;
35961;SDS011;22044;48.298;10.008;2022-11-11T06:41:37;21.73;;;7.83;;
35961;SDS011;22044;48.298;10.008;2022-11-11T06:44:41;8.57;;;7.20;;
35961;SDS011;22044;48.298;10.008;2022-11-11T06:47:46;15.57;;;7.87;;
35961;SDS011;22044;48.298;10.008;2022-11-11T06:50:51;8.50;;;6.77;;
35961;SDS011;22044;48.298;10.008;2022-11-11T06:53:57;19.57;;;7.53;;
35961;SDS011;22044;48.298;10.008;2022-11-11T06:57:02;10.83;;;7.93;;
35961;SDS011;22044;48.298;10.008;2022-11-11T07:00:06;91.80;;;10.77;;
35961;SDS011;22044;48.298;10.008;2022-11-11T07:03:12;15.93;;;7.93;;
35961;SDS011;22044;48.298;10.008;2022-11-11T07:06:17;7.00;;;6.30;;
35961;SDS011;22044;48.298;10.008;2022-11-11T07:09:23;12.80;;;7.03;;
35961;SDS011;22044;48.298;10.008;2022-11-11T07:12:29;23.17;;;7.03;;
35961;SDS011;22044;48.298;10.008;2022-11-11T07:15:33;10.03;;;7.03;;
35961;SDS011;22044;48.298;10.008;2022-11-11T07:18:39;15.40;;;7.00;;
35961;SDS011;22044;48.298;10.008;2022-11-11T07:21:43;10.33;;;5.90;;
35961;SDS011;22044;48.298;10.008;2022-11-11T07:24:49;14.50;;;6.47;;
35961;SDS011;22044;48.298;10.008;2022-11-11T07:27:53;10.97;;;6.17;;
35961;SDS011;22044;48.298;10.008;2022-11-11T07:30:57;7.33;;;6.63;;
35961;SDS011;22044;48.298;10.008;2022-11-11T07:34:02;13.47;;;6.70;;
35961;SDS011;22044;48.298;10.008;2022-11-11T07:37:06;10.00;;;6.27;;
35961;SDS011;22044;48.298;10.008;2022-11-11T07:40:13;8.17;;;6.53;;
35961;SDS011;22044;48.298;10.008;2022-11-11T07:43:19;9.67;;;6.90;;
35961;SDS011;22044;48.298;10.008;2022-11-11T07:46:23;10.23;;;7.37;;
35961;SDS011;22044;48.298;10.008;2022-11-11T07:49:28;8.40;;;7.57;;
35961;SDS011;22044;48.298;10.008;2022-11-11T07:52:32;13.53;;;7.60;;
35961;SDS011;22044;48.298;10.008;2022-11-11T07:55:40;12.27;;;7.30;;
35961;SDS011;22044;48.298;10.008;2022-11-11T07:58:44;14.57;;;7.77;;
35961;SDS011;22044;48.298;10.008;2022-11-11T08:01:49;18.43;;;7.33;;
35961;SDS011;22044;48.298;10.008;2022-11-11T08:04:53;9.17;;;6.63;;
35961;SDS011;22044;48.298;10.008;2022-11-11T08:08:01;11.07;;;6.90;;
35961;SDS011;22044;48.298;10.008;2022-11-11T08:11:07;7.87;;;7.07;;
35961;SDS011;22044;48.298;10.008;2022-11-11T08:14:12;7.90;;;7.10;;
35961;SDS011;22044;48.298;10.008;2022-11-11T08:22:37;15.90;;;8.47;;
35961;SDS011;22044;48.298;10.008;2022-11-11T08:25:41;7.80;;;6.40;;
35961;SDS011;22044;48.298;10.008;2022-11-11T08:28:50;7.63;;;6.83;;
35961;SDS011;22044;48.298;10.008;2022-11-11T08:31:54;8.10;;;6.97;;
35961;SDS011;22044;48.298;10.008;2022-11-11T08:34:59;17.17;;;7.87;;
35961;SDS011;22044;48.298;10.008;2022-11-11T08:38:04;31.40;;;7.63;;
35961;SDS011;22044;48.298;10.008;2022-11-11T08:41:09;9.20;;;7.73;;
35961;SDS011;22044;48.298;10.008;2022-11-11T08:44:14;10.13;;;7.37;;
35961;SDS011;22044;48.298;10.008;2022-11-11T08:47:19;16.07;;;9.10;;
35961;SDS011;22044;48.298;10.008;2022-11-11T08:50:24;16.97;;;9.07;;
35961;SDS011;22044;48.298;10.008;2022-11-11T08:53:28;14.17;;;9.40;;
35961;SDS011;22044;48.298;10.008;2022-11-11T08:56:34;17.27;;;8.53;;
35961;SDS011;22044;48.298;10.008;2022-11-11T08:59:40;17.27;;;9.47;;
35961;SDS011;22044;48.298;10.008;2022-11-11T09:02:44;14.23;;;8.83;;
35961;SDS011;22044;48.298;10.008;2022-11-11T09:05:48;10.30;;;8.80;;
35961;SDS011;22044;48.298;10.008;2022-11-11T09:08:53;10.30;;;9.20;;
35961;SDS011;22044;48.298;10.008;2022-11-11T09:11:58;11.63;;;9.57;;
35961;SDS011;22044;48.298;10.008;2022-11-11T09:15:04;14.53;;;10.13;;
35961;SDS011;22044;48.298;10.008;2022-11-11T09:18:09;12.70;;;10.00;;
35961;SDS011;22044;48.298;10.008;2022-11-11T09:21:13;15.27;;;12.23;;
35961;SDS011;22044;48.298;10.008;2022-11-11T09:24:18;14.73;;;12.13;;
35961;SDS011;22044;48.298;10.008;2022-11-11T09:27:22;17.73;;;12.60;;
35961;SDS011;22044;48.298;10.008;2022-11-11T09:30:28;20.37;;;14.40;;
35961;SDS011;22044;48.298;10.008;2022-11-11T09:33:32;22.47;;;13.60;;
35961;SDS011;22044;48.298;10.008;2022-11-11T09:36:37;17.33;;;12.33;;
35961;SDS011;22044;48.298;10.008;2022-11-11T09:39:41;17.30;;;12.80;;
35961;SDS011;22044;48.298;10.008;2022-11-11T09:42:47;16.30;;;12.70;;
35961;SDS011;22044;48.298;10.008;2022-11-11T09:46:08;15.30;;;11.90;;
35961;SDS011;22044;48.298;10.008;2022-11-11T09:49:36;18.07;;;12.50;;
35961;SDS011;22044;48.298;10.008;2022-11-11T09:52:51;27.77;;;12.77;;
35961;SDS011;22044;48.298;10.008;2022-11-11T09:56:04;15.83;;;12.63;;
35961;SDS011;22044;48.298;10.008;2022-11-11T09:59:13;20.00;;;13.50;;
35961;SDS011;22044;48.298;10.008;2022-11-11T10:02:25;18.63;;;14.40;;
35961;SDS011;22044;48.298;10.008;2022-11-11T10:05:37;18.57;;;14.63;;
35961;SDS011;22044;48.298;10.008;2022-11-11T10:08:47;16.43;;;14.00;;
35961;SDS011;22044;48.298;10.008;2022-11-11T10:12:06;17.70;;;13.90;;
35961;SDS011;22044;48.298;10.008;2022-11-11T10:15:13;17.40;;;14.30;;
35961;SDS011;22044;48.298;10.008;2022-11-11T10:18:27;17.50;;;14.87;;
35961;SDS011;22044;48.298;10.008;2022-11-11T10:21:46;16.03;;;13.93;;
35961;SDS011;22044;48.298;10.008;2022-11-11T10:24:59;22.07;;;14.30;;
35961;SDS011;22044;48.298;10.008;2022-11-11T10:28:12;16.80;;;14.03;;
35961;SDS011;22044;48.298;10.008;2022-11-11T10:31:21;17.40;;;14.53;;
35961;SDS011;22044;48.298;10.008;2022-11-11T10:34:31;15.97;;;13.27;;
35961;SDS011;22044;48.298;10.008;2022-11-11T10:37:38;16.00;;;13.67;;
35961;SDS011;22044;48.298;10.008;2022-11-11T10:40:45;22.50;;;14.63;;
35961;SDS011;22044;48.298;10.008;2022-11-11T10:43:51;17.17;;;13.23;;
35961;SDS011;22044;48.298;10.008;2022-11-11T10:46:57;16.53;;;12.93;;
35961;SDS011;22044;48.298;10.008;2022-11-11T10:50:13;17.43;;;14.33;;
35961;SDS011;22044;48.298;10.008;2022-11-11T10:53:21;15.63;;;13.37;;
35961;SDS011;22044;48.298;10.008;2022-11-11T10:56:35;17.03;;;14.60;;
35961;SDS011;22044;48.298;10.008;2022-11-11T10:59:46;17.80;;;13.77;;
35961;SDS011;22044;48.298;10.008;2022-11-11T11:02:54;16.00;;;13.87;;
35961;SDS011;22044;48.298;10.008;2022-11-11T11:06:09;15.33;;;13.00;;
35961;SDS011;22044;48.298;10.008;2022-11-11T11:09:18;15.57;;;12.77;;
35961;SDS011;22044;48.298;10.008;2022-11-11T11:12:31;16.40;;;13.13;;
35961;SDS011;22044;48.298;10.008;2022-11-11T11:15:41;13.73;;;12.13;;
35961;SDS011;22044;48.298;10.008;2022-11-11T11:22:24;14.23;;;12.47;;
35961;SDS011;22044;48.298;10.008;2022-11-11T11:25:51;17.77;;;13.40;;
35961;SDS011;22044;48.298;10.008;2022-11-11T11:28:57;16.97;;;14.03;;
35961;SDS011;22044;48.298;10.008;2022-11-11T11:32:12;14.07;;;12.03;;
35961;SDS011;22044;48.298;10.008;2022-11-11T11:35:28;16.73;;;13.10;;
35961;SDS011;22044;48.298;10.008;2022-11-11T11:38:42;14.37;;;11.97;;
35961;SDS011;22044;48.298;10.008;2022-11-11T11:41:48;15.27;;;12.67;;
35961;SDS011;22044;48.298;10.008;2022-11-11T11:44:53;17.73;;;12.83;;
35961;SDS011;22044;48.298;10.008;2022-11-11T11:48:01;19.33;;;14.87;;
35961;SDS011;22044;48.298;10.008;2022-11-11T11:51:19;18.73;;;13.57;;
35961;SDS011;22044;48.298;10.008;2022-11-11T11:54:40;19.10;;;14.13;;
35961;SDS011;22044;48.298;10.008;2022-11-11T11:57:55;17.87;;;13.73;;
35961;SDS011;22044;48.298;10.008;2022-11-11T12:01:11;19.40;;;14.83;;
35961;SDS011;22044;48.298;10.008;2022-11-11T12:04:23;19.90;;;15.13;;
35961;SDS011;22044;48.298;10.008;2022-11-11T12:07:45;22.23;;;15.47;;
35961;SDS011;22044;48.298;10.008;2022-11-11T12:11:12;22.60;;;16.10;;
35961;SDS011;22044;48.298;10.008;2022-11-11T12:17:54;21.83;;;15.87;;
35961;SDS011;22044;48.298;10.008;2022-11-11T12:21:16;23.40;;;16.83;;
35961;SDS011;22044;48.298;10.008;2022-11-11T12:24:28;24.70;;;16.57;;
35961;SDS011;22044;48.298;10.008;2022-11-11T12:27:44;25.43;;;17.90;;
35961;SDS011;22044;48.298;10.008;2022-11-11T12:31:00;27.23;;;17.60;;
35961;SDS011;22044;48.298;10.008;2022-11-11T12:34:22;24.47;;;17.37;;
35961;SDS011;22044;48.298;10.008;2022-11-11T12:37:41;29.30;;;19.90;;
35961;SDS011;22044;48.298;10.008;2022-11-11T12:40:55;26.77;;;17.37;;
35961;SDS011;22044;48.298;10.008;2022-11-11T12:44:08;24.67;;;17.80;;
35961;SDS011;22044;48.298;10.008;2022-11-11T12:47:21;22.37;;;17.30;;
35961;SDS011;22044;48.298;10.008;2022-11-11T12:50:35;23.50;;;17.37;;
35961;SDS011;22044;48.298;10.008;2022-11-11T12:53:46;21.70;;;17.13;;
35961;SDS011;22044;48.298;10.008;2022-11-11T12:56:59;35.97;;;26.20;;
35961;SDS011;22044;48.298;10.008;2022-11-11T13:00:11;25.30;;;17.93;;
35961;SDS011;22044;48.298;10.008;2022-11-11T13:03:29;24.73;;;17.40;;
35961;SDS011;22044;48.298;10.008;2022-11-11T13:06:46;24.63;;;17.43;;
35961;SDS011;22044;48.298;10.008;2022-11-11T13:10:07;21.33;;;16.07;;
35961;SDS011;22044;48.298;10.008;2022-11-11T13:13:24;24.77;;;18.27;;
35961;SDS011;22044;48.298;10.008;2022-11-11T13:16:39;24.90;;;17.17;;
35961;SDS011;22044;48.298;10.008;2022-11-11T13:19:48;21.37;;;16.07;;
35961;SDS011;22044;48.298;10.008;2022-11-11T13:22:57;24.80;;;17.00;;
35961;SDS011;22044;48.298;10.008;2022-11-11T13:26:03;26.83;;;17.33;;
35961;SDS011;22044;48.298;10.008;2022-11-11T13:29:20;23.17;;;16.77;;
35961;SDS011;22044;48.298;10.008;2022-11-11T13:32:46;25.40;;;16.97;;
35961;SDS011;22044;48.298;10.008;2022-11-11T13:35:55;27.83;;;16.33;;
35961;SDS011;22044;48.298;10.008;2022-11-11T13:39:02;26.23;;;16.73;;
35961;SDS011;22044;48.298;10.008;2022-11-11T13:42:08;24.73;;;16.90;;
35961;SDS011;22044;48.298;10.008;2022-11-11T13:45:18;25.27;;;17.33;;
35961;SDS011;22044;48.298;10.008;2022-11-11T13:48:31;18.63;;;14.37;;
35961;SDS011;22044;48.298;10.008;2022-11-11T13:51:39;27.97;;;18.73;;
35961;SDS011;22044;48.298;10.008;2022-11-11T13:54:47;19.40;;;14.97;;
35961;SDS011;22044;48.298;10.008;2022-11-11T13:57:54;24.27;;;16.17;;
35961;SDS011;22044;48.298;10.008;2022-11-11T14:00:59;23.03;;;15.80;;
35961;SDS011;22044;48.298;10.008;2022-11-11T14:04:07;26.97;;;16.57;;
35961;SDS011;22044;48.298;10.008;2022-11-11T14:10:51;23.40;;;16.33;;
35961;SDS011;22044;48.298;10.008;2022-11-11T14:14:26;24.50;;;16.47;;
35961;SDS011;22044;48.298;10.008;2022-11-11T14:17:42;22.00;;;15.80;;
35961;SDS011;22044;48.298;10.008;2022-11-11T14:20:49;24.60;;;17.20;;
35961;SDS011;22044;48.298;10.008;2022-11-11T14:23:54;20.27;;;14.77;;
35961;SDS011;22044;48.298;10.008;2022-11-11T14:26:58;23.87;;;16.90;;
35961;SDS011;22044;48.298;10.008;2022-11-11T14:30:09;21.77;;;16.97;;
35961;SDS011;22044;48.298;10.008;2022-11-11T14:33:33;24.63;;;16.80;;
35961;SDS011;22044;48.298;10.008;2022-11-11T14:36:48;21.53;;;16.50;;
35961;SDS011;22044;48.298;10.008;2022-11-11T14:39:58;23.20;;;16.37;;
35961;SDS011;22044;48.298;10.008;2022-11-11T14:53:51;21.83;;;14.83;;
35961;SDS011;22044;48.298;10.008;2022-11-11T14:56:58;21.57;;;14.97;;
35961;SDS011;22044;48.298;10.008;2022-11-11T15:00:10;20.60;;;15.73;;
35961;SDS011;22044;48.298;10.008;2022-11-11T15:03:19;23.43;;;15.33;;
35961;SDS011;22044;48.298;10.008;2022-11-11T15:06:30;21.63;;;15.47;;
35961;SDS011;22044;48.298;10.008;2022-11-11T15:09:42;21.17;;;15.60;;
35961;SDS011;22044;48.298;10.008;2022-11-11T15:13:06;25.37;;;18.20;;
35961;SDS011;22044;48.298;10.008;2022-11-11T15:16:53;19.70;;;14.60;;
35961;SDS011;22044;48.298;10.008;2022-11-11T15:20:16;21.00;;;15.43;;
35961;SDS011;22044;48.298;10.008;2022-11-11T15:23:30;24.70;;;17.03;;
35961;SDS011;22044;48.298;10.008;2022-11-11T15:26:41;19.73;;;14.60;;
35961;SDS011;22044;48.298;10.008;2022-11-11T15:30:00;22.47;;;15.60;;
35961;SDS011;22044;48.298;10.008;2022-11-11T15:33:10;20.80;;;15.10;;
35961;SDS011;22044;48.298;10.008;2022-11-11T15:36:24;22.73;;;15.83;;
35961;SDS011;22044;48.298;10.008;2022-11-11T15:39:37;21.73;;;15.30;;
35961;SDS011;22044;48.298;10.008;2022-11-11T15:42:52;21.87;;;16.07;;
35961;SDS011;22044;48.298;10.008;2022-11-11T15:45:57;19.33;;;14.80;;
35961;SDS011;22044;48.298;10.008;2022-11-11T15:49:03;24.83;;;19.77;;
35961;SDS011;22044;48.298;10.008;2022-11-11T15:52:23;22.73;;;16.83;;
35961;SDS011;22044;48.298;10.008;2022-11-11T15:55:30;23.33;;;17.43;;
35961;SDS011;22044;48.298;10.008;2022-11-11T15:58:38;21.50;;;16.77;;
35961;SDS011;22044;48.298;10.008;2022-11-11T16:01:42;29.47;;;22.97;;
35961;SDS011;22044;48.298;10.008;2022-11-11T16:04:47;23.63;;;17.90;;
35961;SDS011;22044;48.298;10.008;2022-11-11T16:07:54;26.10;;;18.17;;
35961;SDS011;22044;48.298;10.008;2022-11-11T16:11:01;23.23;;;17.40;;
35961;SDS011;22044;48.298;10.008;2022-11-11T16:14:09;21.27;;;16.10;;
35961;SDS011;22044;48.298;10.008;2022-11-11T16:17:28;23.87;;;17.63;;
35961;SDS011;22044;48.298;10.008;2022-11-11T16:20:36;21.50;;;15.83;;
35961;SDS011;22044;48.298;10.008;2022-11-11T16:23:44;19.80;;;14.77;;
35961;SDS011;22044;48.298;10.008;2022-11-11T16:26:50;23.17;;;15.90;;
35961;SDS011;22044;48.298;10.008;2022-11-11T16:30:02;126.87;;;77.47;;
35961;SDS011;22044;48.298;10.008;2022-11-11T16:33:30;50.63;;;32.70;;
35961;SDS011;22044;48.298;10.008;2022-11-11T16:36:36;61.97;;;47.50;;
35961;SDS011;22044;48.298;10.008;2022-11-11T16:43:30;38.80;;;32.80;;
35961;SDS011;22044;48.298;10.008;2022-11-11T16:46:39;37.47;;;25.90;;
35961;SDS011;22044;48.298;10.008;2022-11-11T16:49:44;30.13;;;21.23;;
35961;SDS011;22044;48.298;10.008;2022-11-11T16:52:49;29.13;;;20.23;;
35961;SDS011;22044;48.298;10.008;2022-11-11T16:55:57;24.20;;;18.00;;
35961;SDS011;22044;48.298;10.008;2022-11-11T16:59:03;28.23;;;19.13;;
35961;SDS011;22044;48.298;10.008;2022-11-11T17:02:15;37.43;;;17.90;;
35961;SDS011;22044;48.298;10.008;2022-11-11T17:05:26;29.00;;;17.87;;
35961;SDS011;22044;48.298;10.008;2022-11-11T17:08:50;25.67;;;17.23;;
35961;SDS011;22044;48.298;10.008;2022-11-11T17:11:55;28.63;;;18.80;;
35961;SDS011;22044;48.298;10.008;2022-11-11T17:15:00;28.80;;;18.83;;
35961;SDS011;22044;48.298;10.008;2022-11-11T17:18:06;32.77;;;17.90;;
35961;SDS011;22044;48.298;10.008;2022-11-11T17:21:11;26.00;;;16.67;;
35961;SDS011;22044;48.298;10.008;2022-11-11T17:24:17;42.37;;;16.70;;
35961;SDS011;22044;48.298;10.008;2022-11-11T17:27:21;46.50;;;16.60;;
35961;SDS011;22044;48.298;10.008;2022-11-11T17:30:26;84.37;;;20.17;;
35961;SDS011;22044;48.298;10.008;2022-11-11T17:33:31;33.37;;;18.63;;
35961;SDS011;22044;48.298;10.008;2022-11-11T17:36:36;48.60;;;19.93;;
35961;SDS011;22044;48.298;10.008;2022-11-11T17:39:41;35.20;;;19.47;;
35961;SDS011;22044;48.298;10.008;2022-11-11T17:42:46;27.23;;;19.10;;
35961;SDS011;22044;48.298;10.008;2022-11-11T17:45:51;58.70;;;20.50;;
35961;SDS011;22044;48.298;10.008;2022-11-11T17:48:57;36.00;;;19.07;;
35961;SDS011;22044;48.298;10.008;2022-11-11T17:52:01;36.63;;;20.07;;
35961;SDS011;22044;48.298;10.008;2022-11-11T17:55:06;26.17;;;17.80;;
35961;SDS011;22044;48.298;10.008;2022-11-11T17:58:11;26.57;;;18.97;;
35961;SDS011;22044;48.298;10.008;2022-11-11T18:01:15;25.07;;;16.50;;
35961;SDS011;22044;48.298;10.008;2022-11-11T18:04:21;72.73;;;20.80;;
35961;SDS011;22044;48.298;10.008;2022-11-11T18:07:25;33.63;;;17.63;;
35961;SDS011;22044;48.298;10.008;2022-11-11T18:10:30;37.27;;;18.33;;
35961;SDS011;22044;48.298;10.008;2022-11-11T18:13:35;35.13;;;19.17;;
35961;SDS011;22044;48.298;10.008;2022-11-11T18:16:39;31.30;;;18.10;;
35961;SDS011;22044;48.298;10.008;2022-11-11T18:19:45;32.30;;;18.10;;
35961;SDS011;22044;48.298;10.008;2022-11-11T18:22:53;34.13;;;19.20;;
35961;SDS011;22044;48.298;10.008;2022-11-11T18:25:58;31.17;;;22.60;;
35961;SDS011;22044;48.298;10.008;2022-11-11T18:29:04;29.63;;;21.83;;
35961;SDS011;22044;48.298;10.008;2022-11-11T18:32:09;29.20;;;17.90;;
35961;SDS011;22044;48.298;10.008;2022-11-11T18:35:15;70.57;;;18.50;;
35961;SDS011;22044;48.298;10.008;2022-11-11T18:38:20;68.20;;;18.57;;
35961;SDS011;22044;48.298;10.008;2022-11-11T18:41:24;38.60;;;17.63;;
35961;SDS011;22044;48.298;10.008;2022-11-11T18:44:29;25.67;;;18.40;;
35961;SDS011;22044;48.298;10.008;2022-11-11T18:47:33;42.67;;;18.13;;
35961;SDS011;22044;48.298;10.008;2022-11-11T18:50:39;33.00;;;18.27;;